Portada
METAR-TAF:

METAR-TAF

Aeroports :

Nouméa, Nova Caledònia

latitud: 22-15-30S, longitud: 166-28-22E, altitud: 3 m

METAR: manca

Hora: 08:51 (21:51 UTC)

Pronòstic

L'informe es va fer fa 4 hores i 51 minuts, a les 17:00 UTC
Pronòstic vàlid del 05 a les 18 UTC al 06 a les 18 UTC
Vent 2 kt amb direcció variable
Visibilitat 10 km o més
sense núvols per sota de 1500 mi sense presència de cumulonimbus.
Evolucionant progressivament
l' 05 a les 23 UTC al 06 a les 01 UTC
Vent 17 kt del Sud-Est
Temporalment
l' 06 a les 02 UTC al 06 a les 05 UTC
Vent 17 kt del Sud-Est amb ràfegues de 27 kt
A partir de les 06 a les 0730 UTC
Vent 10 kt del Est
Visibilitat 10 km o més
Cel ennuvolat a una alçada de 1800 ft

TAF: NWWM 051700Z 0518/0618 VRB02KT CAVOK BECMG 0523/0601 13017KT TEMPO 0602/0605 13017G27KT FM060730 10010KT 9999 BKN018

Observacions i pronòstics meteorològics de més de 4000 aeroports (METAR i TAF).

Les estacions disponibles són els punts grocs i vermells al mapa.

Posi el ratolí al punt desitjat per veure el nom de l'estació.

Feu clic per veure les observacions i els pronòstics meteorològics.

Per canviar el mapa: feu clic els botons verds amb una creu de color negre per apropar; al botó verd amb un guió per allunyar la imatge; o en les fletxes verdes per a mapes adjacents.


METAR-TAF: